sensor_id;sensor_type;location;lat;lon;timestamp;pressure;altitude;pressure_sealevel;temperature;humidity
55466;BME280;41329;41.594;23.810;2023-02-07T00:01:56;96355.97;;;-2.24;44.70
55466;BME280;41329;41.594;23.810;2023-02-07T00:04:22;96360.28;;;-2.33;44.83
55466;BME280;41329;41.594;23.810;2023-02-07T00:06:47;96361.91;;;-2.32;45.09
55466;BME280;41329;41.594;23.810;2023-02-07T00:09:13;96352.16;;;-2.28;45.21
55466;BME280;41329;41.594;23.810;2023-02-07T00:11:39;96360.28;;;-2.28;44.93
55466;BME280;41329;41.594;23.810;2023-02-07T00:14:06;96370.03;;;-2.27;45.00
55466;BME280;41329;41.594;23.810;2023-02-07T00:16:32;96373.84;;;-2.28;44.98
55466;BME280;41329;41.594;23.810;2023-02-07T00:18:58;96350.22;;;-2.38;45.29
55466;BME280;41329;41.594;23.810;2023-02-07T00:21:24;96354.84;;;-2.43;44.89
55466;BME280;41329;41.594;23.810;2023-02-07T00:23:51;96357.81;;;-2.45;45.13
55466;BME280;41329;41.594;23.810;2023-02-07T00:26:19;96373.31;;;-2.35;45.17
55466;BME280;41329;41.594;23.810;2023-02-07T00:28:45;96365.94;;;-2.45;45.24
55466;BME280;41329;41.594;23.810;2023-02-07T00:31:14;96378.41;;;-2.39;45.17
55466;BME280;41329;41.594;23.810;2023-02-07T00:33:41;96383.31;;;-2.41;45.19
55466;BME280;41329;41.594;23.810;2023-02-07T00:36:09;96379.72;;;-2.51;45.46
55466;BME280;41329;41.594;23.810;2023-02-07T00:38:35;96379.75;;;-2.46;45.61
55466;BME280;41329;41.594;23.810;2023-02-07T00:41:01;96387.91;;;-2.41;45.48
55466;BME280;41329;41.594;23.810;2023-02-07T00:43:27;96388.41;;;-2.44;45.41
55466;BME280;41329;41.594;23.810;2023-02-07T00:45:54;96370.75;;;-2.57;45.61
55466;BME280;41329;41.594;23.810;2023-02-07T00:48:20;96381.31;;;-2.60;45.55
55466;BME280;41329;41.594;23.810;2023-02-07T00:50:45;96396.75;;;-2.56;45.67
55466;BME280;41329;41.594;23.810;2023-02-07T00:53:11;96400.31;;;-2.50;45.80
55466;BME280;41329;41.594;23.810;2023-02-07T00:55:36;96368.28;;;-2.68;45.64
55466;BME280;41329;41.594;23.810;2023-02-07T00:58:02;96371.50;;;-2.76;45.77
55466;BME280;41329;41.594;23.810;2023-02-07T01:00:28;96392.41;;;-2.62;45.90
55466;BME280;41329;41.594;23.810;2023-02-07T01:02:53;96371.78;;;-2.68;45.82
55466;BME280;41329;41.594;23.810;2023-02-07T01:05:19;96397.00;;;-2.62;45.80
55466;BME280;41329;41.594;23.810;2023-02-07T01:07:44;96391.28;;;-2.71;46.12
55466;BME280;41329;41.594;23.810;2023-02-07T01:10:09;96387.25;;;-2.68;46.03
55466;BME280;41329;41.594;23.810;2023-02-07T01:12:35;96377.69;;;-2.81;46.16
55466;BME280;41329;41.594;23.810;2023-02-07T01:15:02;96374.91;;;-2.96;46.19
55466;BME280;41329;41.594;23.810;2023-02-07T01:17:28;96386.28;;;-2.94;46.77
55466;BME280;41329;41.594;23.810;2023-02-07T01:19:57;96391.97;;;-2.90;46.85
55466;BME280;41329;41.594;23.810;2023-02-07T01:22:23;96390.84;;;-2.99;46.90
55466;BME280;41329;41.594;23.810;2023-02-07T01:24:52;96391.19;;;-2.86;46.59
55466;BME280;41329;41.594;23.810;2023-02-07T01:27:17;96350.22;;;-3.04;46.45
55466;BME280;41329;41.594;23.810;2023-02-07T01:29:43;96384.19;;;-2.77;46.56
55466;BME280;41329;41.594;23.810;2023-02-07T01:32:08;96374.34;;;-2.93;46.61
55466;BME280;41329;41.594;23.810;2023-02-07T01:34:34;96381.22;;;-2.80;46.70
55466;BME280;41329;41.594;23.810;2023-02-07T01:37:00;96377.47;;;-2.69;46.67
55466;BME280;41329;41.594;23.810;2023-02-07T01:39:25;96376.09;;;-2.72;46.36
55466;BME280;41329;41.594;23.810;2023-02-07T01:41:50;96377.44;;;-2.74;46.37
55466;BME280;41329;41.594;23.810;2023-02-07T01:46:48;96361.44;;;-2.76;46.15
55466;BME280;41329;41.594;23.810;2023-02-07T01:49:17;96384.03;;;-2.60;46.19
55466;BME280;41329;41.594;23.810;2023-02-07T01:51:47;96372.03;;;-2.69;46.12
55466;BME280;41329;41.594;23.810;2023-02-07T01:54:15;96371.78;;;-2.68;46.35
55466;BME280;41329;41.594;23.810;2023-02-07T01:56:47;96354.16;;;-2.75;46.33
55466;BME280;41329;41.594;23.810;2023-02-07T01:59:14;96385.66;;;-2.59;46.12
55466;BME280;41329;41.594;23.810;2023-02-07T02:01:41;96380.00;;;-2.53;45.94
55466;BME280;41329;41.594;23.810;2023-02-07T02:04:07;96381.34;;;-2.55;46.02
55466;BME280;41329;41.594;23.810;2023-02-07T02:06:34;96365.59;;;-2.63;46.21
55466;BME280;41329;41.594;23.810;2023-02-07T02:09:00;96378.31;;;-2.59;45.91
55466;BME280;41329;41.594;23.810;2023-02-07T02:36:24;96362.50;;;-2.87;46.78
55466;BME280;41329;41.594;23.810;2023-02-07T02:42:22;96387.75;;;-2.76;46.78
55466;BME280;41329;41.594;23.810;2023-02-07T02:44:57;96380.97;;;-2.79;46.70
55466;BME280;41329;41.594;23.810;2023-02-07T02:47:26;96380.72;;;-2.72;46.75
55466;BME280;41329;41.594;23.810;2023-02-07T02:49:54;96384.94;;;-2.91;46.80
55466;BME280;41329;41.594;23.810;2023-02-07T02:52:20;96388.47;;;-2.91;46.79
55466;BME280;41329;41.594;23.810;2023-02-07T02:54:45;96382.56;;;-2.83;47.04
55466;BME280;41329;41.594;23.810;2023-02-07T03:00:38;96387.75;;;-2.71;46.67
55466;BME280;41329;41.594;23.810;2023-02-07T03:08:55;96382.13;;;-2.55;46.31
55466;BME280;41329;41.594;23.810;2023-02-07T03:11:22;96377.53;;;-2.59;46.23
55466;BME280;41329;41.594;23.810;2023-02-07T03:16:45;96374.19;;;-2.76;46.63
55466;BME280;41329;41.594;23.810;2023-02-07T03:22:01;96379.63;;;-2.76;46.46
55466;BME280;41329;41.594;23.810;2023-02-07T03:24:32;96386.41;;;-2.69;46.42
55466;BME280;41329;41.594;23.810;2023-02-07T03:27:10;96379.06;;;-2.73;46.58
55466;BME280;41329;41.594;23.810;2023-02-07T03:29:38;96383.44;;;-2.67;46.41
55466;BME280;41329;41.594;23.810;2023-02-07T03:32:07;96354.91;;;-2.85;46.16
55466;BME280;41329;41.594;23.810;2023-02-07T03:35:04;96380.75;;;-2.67;46.45
55466;BME280;41329;41.594;23.810;2023-02-07T03:37:35;96378.63;;;-2.60;46.26
55466;BME280;41329;41.594;23.810;2023-02-07T03:40:02;96355.50;;;-2.73;45.88
55466;BME280;41329;41.594;23.810;2023-02-07T03:42:40;96376.97;;;-2.61;46.19
55466;BME280;41329;41.594;23.810;2023-02-07T03:45:10;96376.44;;;-2.58;46.00
55466;BME280;41329;41.594;23.810;2023-02-07T03:47:37;96362.28;;;-2.75;46.16
55466;BME280;41329;41.594;23.810;2023-02-07T03:50:03;96367.44;;;-2.74;46.06
55466;BME280;41329;41.594;23.810;2023-02-07T03:52:28;96370.16;;;-2.74;46.07
55466;BME280;41329;41.594;23.810;2023-02-07T03:54:54;96335.34;;;-2.97;46.33
55466;BME280;41329;41.594;23.810;2023-02-07T03:57:19;96377.41;;;-2.84;46.55
55466;BME280;41329;41.594;23.810;2023-02-07T03:59:45;96377.16;;;-2.83;46.36
55466;BME280;41329;41.594;23.810;2023-02-07T04:02:10;96379.59;;;-2.81;46.44
55466;BME280;41329;41.594;23.810;2023-02-07T04:04:35;96327.56;;;-3.30;46.54
55466;BME280;41329;41.594;23.810;2023-02-07T04:07:01;96389.50;;;-2.97;46.80
55466;BME280;41329;41.594;23.810;2023-02-07T04:09:26;96387.03;;;-3.03;47.07
55466;BME280;41329;41.594;23.810;2023-02-07T04:11:52;96387.56;;;-3.06;47.16
55466;BME280;41329;41.594;23.810;2023-02-07T04:14:17;96387.72;;;-3.18;47.19
55466;BME280;41329;41.594;23.810;2023-02-07T04:16:47;96386.09;;;-3.24;47.79
55466;BME280;41329;41.594;23.810;2023-02-07T04:19:14;96401.00;;;-3.16;47.68
55466;BME280;41329;41.594;23.810;2023-02-07T04:21:40;96400.59;;;-3.35;48.04
55466;BME280;41329;41.594;23.810;2023-02-07T04:24:06;96397.22;;;-3.15;47.87
55466;BME280;41329;41.594;23.810;2023-02-07T04:26:31;96413.22;;;-3.09;47.81
55466;BME280;41329;41.594;23.810;2023-02-07T04:28:57;96421.09;;;-3.07;47.81
55466;BME280;41329;41.594;23.810;2023-02-07T04:31:22;96417.03;;;-3.10;47.46
55466;BME280;41329;41.594;23.810;2023-02-07T04:33:48;96393.47;;;-3.14;47.39
55466;BME280;41329;41.594;23.810;2023-02-07T04:36:14;96417.91;;;-2.99;47.35
55466;BME280;41329;41.594;23.810;2023-02-07T04:38:40;96399.94;;;-3.15;47.31
55466;BME280;41329;41.594;23.810;2023-02-07T04:41:06;96405.53;;;-3.27;47.43
55466;BME280;41329;41.594;23.810;2023-02-07T04:43:33;96407.94;;;-3.30;47.54
55466;BME280;41329;41.594;23.810;2023-02-07T04:45:58;96412.09;;;-3.18;47.77
55466;BME280;41329;41.594;23.810;2023-02-07T04:48:25;96439.00;;;-3.06;47.75
55466;BME280;41329;41.594;23.810;2023-02-07T04:50:50;96442.59;;;-2.96;47.54
55466;BME280;41329;41.594;23.810;2023-02-07T04:53:16;96438.53;;;-2.93;47.16
55466;BME280;41329;41.594;23.810;2023-02-07T04:55:41;96451.28;;;-2.89;47.04
55466;BME280;41329;41.594;23.810;2023-02-07T04:58:07;96421.19;;;-2.97;46.98
55466;BME280;41329;41.594;23.810;2023-02-07T05:00:32;96451.84;;;-2.87;46.95
55466;BME280;41329;41.594;23.810;2023-02-07T05:02:59;96380.09;;;-3.26;46.57
55466;BME280;41329;41.594;23.810;2023-02-07T05:05:24;96453.00;;;-2.78;46.51
55466;BME280;41329;41.594;23.810;2023-02-07T05:07:50;96460.53;;;-2.80;46.60
55466;BME280;41329;41.594;23.810;2023-02-07T05:10:15;96460.53;;;-2.80;46.50
55466;BME280;41329;41.594;23.810;2023-02-07T05:12:41;96470.31;;;-2.79;46.36
55466;BME280;41329;41.594;23.810;2023-02-07T05:15:07;96456.19;;;-2.86;46.40
55466;BME280;41329;41.594;23.810;2023-02-07T05:17:32;96456.47;;;-2.82;46.08
55466;BME280;41329;41.594;23.810;2023-02-07T05:20:04;96479.03;;;-2.72;46.20
55466;BME280;41329;41.594;23.810;2023-02-07T05:22:30;96475.53;;;-2.67;46.00
55466;BME280;41329;41.594;23.810;2023-02-07T05:24:55;96465.06;;;-2.90;46.46
55466;BME280;41329;41.594;23.810;2023-02-07T05:27:21;96489.78;;;-2.82;46.41
55466;BME280;41329;41.594;23.810;2023-02-07T05:29:46;96478.03;;;-2.97;46.38
55466;BME280;41329;41.594;23.810;2023-02-07T05:32:13;96487.81;;;-2.91;46.54
55466;BME280;41329;41.594;23.810;2023-02-07T05:34:57;96485.22;;;-2.81;46.46
55466;BME280;41329;41.594;23.810;2023-02-07T05:37:23;96483.56;;;-2.77;46.08
55466;BME280;41329;41.594;23.810;2023-02-07T05:39:48;96487.47;;;-2.68;45.94
55466;BME280;41329;41.594;23.810;2023-02-07T05:42:14;96471.38;;;-2.80;46.17
55466;BME280;41329;41.594;23.810;2023-02-07T05:44:39;96479.84;;;-2.71;46.32
55466;BME280;41329;41.594;23.810;2023-02-07T05:47:04;96485.63;;;-2.58;45.81
55466;BME280;41329;41.594;23.810;2023-02-07T05:49:30;96480.53;;;-2.49;45.60
55466;BME280;41329;41.594;23.810;2023-02-07T05:51:55;96461.00;;;-2.56;45.44
55466;BME280;41329;41.594;23.810;2023-02-07T05:54:21;96476.97;;;-2.55;45.12
55466;BME280;41329;41.594;23.810;2023-02-07T05:56:46;96480.72;;;-2.61;45.80
55466;BME280;41329;41.594;23.810;2023-02-07T05:59:12;96474.47;;;-2.61;45.56
55466;BME280;41329;41.594;23.810;2023-02-07T06:01:38;96478.28;;;-2.62;45.42
55466;BME280;41329;41.594;23.810;2023-02-07T06:04:03;96459.06;;;-2.56;45.43
55466;BME280;41329;41.594;23.810;2023-02-07T06:06:29;96469.69;;;-2.49;45.15
55466;BME280;41329;41.594;23.810;2023-02-07T06:08:54;96466.22;;;-2.40;44.86
55466;BME280;41329;41.594;23.810;2023-02-07T06:11:20;96490.97;;;-2.21;44.70
55466;BME280;41329;41.594;23.810;2023-02-07T06:13:45;96490.66;;;-2.30;44.57
55466;BME280;41329;41.594;23.810;2023-02-07T06:16:10;96493.41;;;-2.25;44.52
55466;BME280;41329;41.594;23.810;2023-02-07T06:18:37;96489.88;;;-2.25;44.25
55466;BME280;41329;41.594;23.810;2023-02-07T06:21:03;96484.59;;;-2.47;44.63
55466;BME280;41329;41.594;23.810;2023-02-07T06:23:28;96490.41;;;-2.23;44.36
55466;BME280;41329;41.594;23.810;2023-02-07T06:25:55;96498.31;;;-2.17;44.19
55466;BME280;41329;41.594;23.810;2023-02-07T06:28:21;96493.13;;;-2.23;44.21
55466;BME280;41329;41.594;23.810;2023-02-07T06:30:47;96482.84;;;-2.21;44.08
55466;BME280;41329;41.594;23.810;2023-02-07T06:33:12;96498.41;;;-1.97;43.89
55466;BME280;41329;41.594;23.810;2023-02-07T06:35:38;96492.13;;;-2.02;43.78
55466;BME280;41329;41.594;23.810;2023-02-07T06:38:03;96495.72;;;-1.92;43.77
55466;BME280;41329;41.594;23.810;2023-02-07T06:40:30;96501.94;;;-1.96;43.81
55466;BME280;41329;41.594;23.810;2023-02-07T06:42:55;96505.75;;;-1.97;43.64
55466;BME280;41329;41.594;23.810;2023-02-07T06:45:21;96490.78;;;-2.00;43.70
55466;BME280;41329;41.594;23.810;2023-02-07T06:47:46;96506.28;;;-1.90;43.47
55466;BME280;41329;41.594;23.810;2023-02-07T06:50:18;96497.63;;;-1.87;43.47
55466;BME280;41329;41.594;23.810;2023-02-07T06:52:43;96509.59;;;-1.83;43.36
55466;BME280;41329;41.594;23.810;2023-02-07T06:55:09;96514.78;;;-1.72;43.45
55466;BME280;41329;41.594;23.810;2023-02-07T06:57:34;96512.13;;;-1.62;43.25
55466;BME280;41329;41.594;23.810;2023-02-07T07:00:00;96493.09;;;-1.67;43.12
55466;BME280;41329;41.594;23.810;2023-02-07T07:02:25;96504.81;;;-1.46;42.70
55466;BME280;41329;41.594;23.810;2023-02-07T07:04:51;96506.72;;;-1.47;42.73
55466;BME280;41329;41.594;23.810;2023-02-07T07:07:16;96507.53;;;-1.41;42.76
55466;BME280;41329;41.594;23.810;2023-02-07T07:09:41;96490.69;;;-1.48;42.05
55466;BME280;41329;41.594;23.810;2023-02-07T07:12:07;96495.06;;;-1.37;41.63
55466;BME280;41329;41.594;23.810;2023-02-07T07:14:32;96489.63;;;-1.42;41.90
55466;BME280;41329;41.594;23.810;2023-02-07T07:16:58;96496.16;;;-1.28;41.55
55466;BME280;41329;41.594;23.810;2023-02-07T07:19:24;96496.16;;;-1.23;41.02
55466;BME280;41329;41.594;23.810;2023-02-07T07:21:50;96474.44;;;-1.38;40.99
55466;BME280;41329;41.594;23.810;2023-02-07T07:24:16;96502.94;;;-1.21;41.01
55466;BME280;41329;41.594;23.810;2023-02-07T07:26:41;96501.59;;;-1.23;41.02
55466;BME280;41329;41.594;23.810;2023-02-07T07:29:07;96451.06;;;-1.54;41.37
55466;BME280;41329;41.594;23.810;2023-02-07T07:31:32;96492.91;;;-1.25;40.82
55466;BME280;41329;41.594;23.810;2023-02-07T07:33:58;96474.97;;;-1.26;40.62
55466;BME280;41329;41.594;23.810;2023-02-07T07:36:23;96471.72;;;-1.28;40.75
55466;BME280;41329;41.594;23.810;2023-02-07T07:38:49;96439.38;;;-1.50;41.02
55466;BME280;41329;41.594;23.810;2023-02-07T07:41:14;96499.16;;;-1.15;40.37
55466;BME280;41329;41.594;23.810;2023-02-07T07:43:39;96488.84;;;-1.13;40.61
55466;BME280;41329;41.594;23.810;2023-02-07T07:46:05;96487.75;;;-1.12;40.65
55466;BME280;41329;41.594;23.810;2023-02-07T07:48:33;96495.09;;;-1.07;40.64
55466;BME280;41329;41.594;23.810;2023-02-07T07:50:58;96501.88;;;-1.05;40.40
55466;BME280;41329;41.594;23.810;2023-02-07T07:53:24;96494.56;;;-1.09;40.61
55466;BME280;41329;41.594;23.810;2023-02-07T07:55:51;96498.38;;;-1.00;40.22
55466;BME280;41329;41.594;23.810;2023-02-07T07:58:17;96497.28;;;-0.99;40.24
55466;BME280;41329;41.594;23.810;2023-02-07T08:00:43;96488.59;;;-0.96;40.74
55466;BME280;41329;41.594;23.810;2023-02-07T08:03:11;96438.88;;;-1.17;40.36
55466;BME280;41329;41.594;23.810;2023-02-07T08:05:38;96510.03;;;-0.60;41.10
55466;BME280;41329;41.594;23.810;2023-02-07T08:08:03;96505.66;;;-0.41;39.91
55466;BME280;41329;41.594;23.810;2023-02-07T08:10:36;96443.69;;;-0.54;41.08
55466;BME280;41329;41.594;23.810;2023-02-07T08:13:02;96496.38;;;-0.15;38.75
55466;BME280;41329;41.594;23.810;2023-02-07T08:15:28;96471.56;;;-0.03;39.75
55466;BME280;41329;41.594;23.810;2023-02-07T08:17:53;96506.50;;;0.39;38.98
55466;BME280;41329;41.594;23.810;2023-02-07T08:20:19;96490.63;;;0.56;38.80
55466;BME280;41329;41.594;23.810;2023-02-07T08:22:44;96476.97;;;0.66;38.34
55466;BME280;41329;41.594;23.810;2023-02-07T08:25:10;96488.78;;;0.90;38.20
55466;BME280;41329;41.594;23.810;2023-02-07T08:27:37;96485.91;;;1.10;39.10
55466;BME280;41329;41.594;23.810;2023-02-07T08:30:05;96480.66;;;1.18;36.64
55466;BME280;41329;41.594;23.810;2023-02-07T08:32:30;96492.59;;;1.27;35.64
55466;BME280;41329;41.594;23.810;2023-02-07T08:34:56;96480.38;;;1.20;35.77
55466;BME280;41329;41.594;23.810;2023-02-07T08:37:21;96489.91;;;1.22;35.80
55466;BME280;41329;41.594;23.810;2023-02-07T08:39:47;96453.00;;;1.01;35.08
55466;BME280;41329;41.594;23.810;2023-02-07T08:42:18;96470.00;;;0.83;35.67
55466;BME280;41329;41.594;23.810;2023-02-07T08:44:45;96478.66;;;0.95;35.55
55466;BME280;41329;41.594;23.810;2023-02-07T08:47:11;96467.88;;;1.14;35.93
55466;BME280;41329;41.594;23.810;2023-02-07T08:49:36;96467.19;;;1.32;35.13
55466;BME280;41329;41.594;23.810;2023-02-07T08:52:02;96457.22;;;1.17;33.80
55466;BME280;41329;41.594;23.810;2023-02-07T08:54:27;96453.00;;;1.01;33.81
55466;BME280;41329;41.594;23.810;2023-02-07T08:56:53;96462.75;;;1.07;35.09
55466;BME280;41329;41.594;23.810;2023-02-07T08:59:18;96470.16;;;1.35;35.53
55466;BME280;41329;41.594;23.810;2023-02-07T09:01:43;96458.00;;;1.51;34.21
55466;BME280;41329;41.594;23.810;2023-02-07T09:04:09;96465.97;;;1.71;35.25
55466;BME280;41329;41.594;23.810;2023-02-07T09:06:35;96463.22;;;2.00;35.16
55466;BME280;41329;41.594;23.810;2023-02-07T09:09:01;96409.44;;;2.00;33.65
55466;BME280;41329;41.594;23.810;2023-02-07T09:11:26;96441.63;;;2.45;33.47
55466;BME280;41329;41.594;23.810;2023-02-07T09:13:52;96454.06;;;2.56;32.34
55466;BME280;41329;41.594;23.810;2023-02-07T09:16:17;96425.88;;;2.37;33.64
55466;BME280;41329;41.594;23.810;2023-02-07T09:18:43;96439.69;;;2.64;33.69
55466;BME280;41329;41.594;23.810;2023-02-07T09:21:08;96437.06;;;2.78;32.53
55466;BME280;41329;41.594;23.810;2023-02-07T09:23:34;96442.06;;;2.89;31.87
55466;BME280;41329;41.594;23.810;2023-02-07T09:26:04;96439.50;;;2.98;32.42
55466;BME280;41329;41.594;23.810;2023-02-07T09:28:31;96432.69;;;3.14;32.49
55466;BME280;41329;41.594;23.810;2023-02-07T09:30:57;96430.69;;;3.19;31.79
55466;BME280;41329;41.594;23.810;2023-02-07T09:33:22;96426.22;;;3.23;31.61
55466;BME280;41329;41.594;23.810;2023-02-07T09:35:48;96425.22;;;3.33;31.36
55466;BME280;41329;41.594;23.810;2023-02-07T09:38:19;96419.72;;;3.51;31.84
55466;BME280;41329;41.594;23.810;2023-02-07T09:40:47;96413.25;;;3.61;31.10
55466;BME280;41329;41.594;23.810;2023-02-07T09:45:47;96411.44;;;3.83;30.99
55466;BME280;41329;41.594;23.810;2023-02-07T09:48:21;96405.06;;;3.88;30.45
55466;BME280;41329;41.594;23.810;2023-02-07T09:50:51;96397.06;;;3.91;30.63
55466;BME280;41329;41.594;23.810;2023-02-07T09:53:25;96401.69;;;3.77;30.53
55466;BME280;41329;41.594;23.810;2023-02-07T09:55:54;96400.81;;;3.95;31.05
55466;BME280;41329;41.594;23.810;2023-02-07T09:58:32;96346.97;;;3.50;29.19
55466;BME280;41329;41.594;23.810;2023-02-07T10:01:31;96392.19;;;3.61;29.41
55466;BME280;41329;41.594;23.810;2023-02-07T10:06:55;96391.31;;;3.47;30.17
55466;BME280;41329;41.594;23.810;2023-02-07T10:09:38;96378.78;;;3.60;31.46
55466;BME280;41329;41.594;23.810;2023-02-07T10:21:04;96366.97;;;4.76;30.24
55466;BME280;41329;41.594;23.810;2023-02-07T10:26:53;96359.06;;;5.18;30.40
55466;BME280;41329;41.594;23.810;2023-02-07T10:31:54;96344.09;;;5.46;28.81
55466;BME280;41329;41.594;23.810;2023-02-07T10:34:27;96348.59;;;5.20;27.02
55466;BME280;41329;41.594;23.810;2023-02-07T10:36:56;96294.44;;;4.60;28.84
55466;BME280;41329;41.594;23.810;2023-02-07T10:39:31;96329.72;;;4.97;29.45
55466;BME280;41329;41.594;23.810;2023-02-07T10:41:57;96345.38;;;5.18;28.77
55466;BME280;41329;41.594;23.810;2023-02-07T10:44:24;96322.13;;;5.16;27.73
55466;BME280;41329;41.594;23.810;2023-02-07T10:46:56;96336.94;;;5.37;28.80
55466;BME280;41329;41.594;23.810;2023-02-07T10:49:25;96318.31;;;5.25;27.67
55466;BME280;41329;41.594;23.810;2023-02-07T10:51:55;96331.97;;;5.47;28.42
55466;BME280;41329;41.594;23.810;2023-02-07T10:54:21;96341.34;;;5.46;27.58
55466;BME280;41329;41.594;23.810;2023-02-07T10:56:49;96337.44;;;5.17;27.00
55466;BME280;41329;41.594;23.810;2023-02-07T11:04:54;96335.66;;;5.12;28.40
55466;BME280;41329;41.594;23.810;2023-02-07T11:07:20;96325.53;;;5.21;27.66
55466;BME280;41329;41.594;23.810;2023-02-07T11:13:05;96313.53;;;5.39;27.72
55466;BME280;41329;41.594;23.810;2023-02-07T11:15:45;96318.09;;;5.44;27.54
55466;BME280;41329;41.594;23.810;2023-02-07T11:18:45;96303.22;;;5.45;27.57
55466;BME280;41329;41.594;23.810;2023-02-07T11:29:21;96309.13;;;5.69;26.22
55466;BME280;41329;41.594;23.810;2023-02-07T11:31:49;96305.44;;;5.73;27.16
55466;BME280;41329;41.594;23.810;2023-02-07T11:37:23;96305.53;;;5.82;26.97
55466;BME280;41329;41.594;23.810;2023-02-07T11:39:52;96294.22;;;6.00;26.64
55466;BME280;41329;41.594;23.810;2023-02-07T11:42:24;96277.75;;;6.00;25.50
55466;BME280;41329;41.594;23.810;2023-02-07T11:44:51;96280.72;;;5.73;25.09
55466;BME280;41329;41.594;23.810;2023-02-07T11:47:21;96281.63;;;5.91;27.03
55466;BME280;41329;41.594;23.810;2023-02-07T11:49:52;96253.84;;;6.01;25.35
55466;BME280;41329;41.594;23.810;2023-02-07T11:52:19;96273.44;;;6.08;25.71
55466;BME280;41329;41.594;23.810;2023-02-07T11:54:56;96255.78;;;6.00;26.71
55466;BME280;41329;41.594;23.810;2023-02-07T11:57:23;96263.91;;;6.31;26.29
55466;BME280;41329;41.594;23.810;2023-02-07T12:00:06;96249.50;;;6.42;25.38
55466;BME280;41329;41.594;23.810;2023-02-07T12:02:49;96247.25;;;6.36;24.86
55466;BME280;41329;41.594;23.810;2023-02-07T12:05:19;96266.19;;;6.54;26.24
55466;BME280;41329;41.594;23.810;2023-02-07T12:07:49;96222.69;;;6.57;26.68
55466;BME280;41329;41.594;23.810;2023-02-07T12:10:22;96242.56;;;6.79;23.77
55466;BME280;41329;41.594;23.810;2023-02-07T12:12:52;96254.53;;;6.83;25.01
55466;BME280;41329;41.594;23.810;2023-02-07T12:20:38;96185.91;;;6.87;25.55
55466;BME280;41329;41.594;23.810;2023-02-07T12:23:22;96246.66;;;7.28;25.30
55466;BME280;41329;41.594;23.810;2023-02-07T12:26:17;96263.19;;;7.28;24.29
55466;BME280;41329;41.594;23.810;2023-02-07T12:28:53;96260.16;;;6.95;24.59
55466;BME280;41329;41.594;23.810;2023-02-07T12:31:25;96260.19;;;6.87;25.00
55466;BME280;41329;41.594;23.810;2023-02-07T12:34:01;96256.63;;;6.78;24.71
55466;BME280;41329;41.594;23.810;2023-02-07T12:36:36;96265.53;;;6.83;26.43
55466;BME280;41329;41.594;23.810;2023-02-07T12:39:26;96215.69;;;6.68;26.41
55466;BME280;41329;41.594;23.810;2023-02-07T12:42:28;96256.25;;;7.05;27.02
55466;BME280;41329;41.594;23.810;2023-02-07T12:44:59;96253.81;;;7.12;24.19
55466;BME280;41329;41.594;23.810;2023-02-07T12:50:22;96263.22;;;7.11;25.42
55466;BME280;41329;41.594;23.810;2023-02-07T12:58:30;96266.84;;;7.40;25.64
55466;BME280;41329;41.594;23.810;2023-02-07T13:01:33;96249.34;;;7.45;25.34
55466;BME280;41329;41.594;23.810;2023-02-07T13:04:31;96274.59;;;7.55;25.75
55466;BME280;41329;41.594;23.810;2023-02-07T13:07:08;96270.34;;;7.58;25.18
55466;BME280;41329;41.594;23.810;2023-02-07T13:13:02;96263.63;;;7.38;24.07
55466;BME280;41329;41.594;23.810;2023-02-07T13:21:16;96272.75;;;7.68;24.27
55466;BME280;41329;41.594;23.810;2023-02-07T13:23:47;96216.56;;;7.23;23.88
55466;BME280;41329;41.594;23.810;2023-02-07T13:26:16;96268.31;;;7.38;24.75
55466;BME280;41329;41.594;23.810;2023-02-07T13:28:45;96246.34;;;7.21;24.36
55466;BME280;41329;41.594;23.810;2023-02-07T13:31:18;96278.03;;;7.35;25.16
55466;BME280;41329;41.594;23.810;2023-02-07T13:33:48;96273.34;;;7.36;23.78
55466;BME280;41329;41.594;23.810;2023-02-07T13:36:35;96271.13;;;7.29;24.56
55466;BME280;41329;41.594;23.810;2023-02-07T13:45:14;96273.28;;;6.30;24.17
55466;BME280;41329;41.594;23.810;2023-02-07T13:50:28;96277.91;;;5.95;26.72
55466;BME280;41329;41.594;23.810;2023-02-07T13:53:09;96281.06;;;6.28;27.27
55466;BME280;41329;41.594;23.810;2023-02-07T13:55:42;96281.69;;;6.68;26.78
55466;BME280;41329;41.594;23.810;2023-02-07T14:01:29;96283.91;;;7.17;26.09
55466;BME280;41329;41.594;23.810;2023-02-07T14:06:26;96279.47;;;7.50;25.66
55466;BME280;41329;41.594;23.810;2023-02-07T14:11:41;96284.81;;;7.84;25.65
55466;BME280;41329;41.594;23.810;2023-02-07T14:14:26;96266.06;;;8.06;25.05
55466;BME280;41329;41.594;23.810;2023-02-07T14:16:55;96278.59;;;8.33;23.87
55466;BME280;41329;41.594;23.810;2023-02-07T14:22:25;96280.59;;;9.06;24.54
55466;BME280;41329;41.594;23.810;2023-02-07T14:33:20;96276.88;;;10.63;22.37
55466;BME280;41329;41.594;23.810;2023-02-07T14:38:42;96261.56;;;10.93;21.33
55466;BME280;41329;41.594;23.810;2023-02-07T14:41:15;96283.50;;;10.74;21.00
55466;BME280;41329;41.594;23.810;2023-02-07T14:46:15;96282.81;;;11.16;20.86
55466;BME280;41329;41.594;23.810;2023-02-07T14:51:17;96289.81;;;11.26;20.84
55466;BME280;41329;41.594;23.810;2023-02-07T14:56:30;96280.75;;;10.74;20.99
55466;BME280;41329;41.594;23.810;2023-02-07T14:59:01;96302.78;;;10.70;20.42
55466;BME280;41329;41.594;23.810;2023-02-07T15:01:27;96304.75;;;10.58;19.63
55466;BME280;41329;41.594;23.810;2023-02-07T15:04:04;96295.78;;;10.49;20.16
55466;BME280;41329;41.594;23.810;2023-02-07T15:06:37;96263.31;;;10.34;20.12
55466;BME280;41329;41.594;23.810;2023-02-07T15:09:03;96312.59;;;10.68;19.58
55466;BME280;41329;41.594;23.810;2023-02-07T15:11:29;96304.66;;;10.30;19.10
55466;BME280;41329;41.594;23.810;2023-02-07T15:13:57;96318.50;;;10.18;20.12
55466;BME280;41329;41.594;23.810;2023-02-07T15:16:29;96312.16;;;10.06;19.61
55466;BME280;41329;41.594;23.810;2023-02-07T15:19:19;96317.97;;;9.80;19.38
55466;BME280;41329;41.594;23.810;2023-02-07T15:21:46;96318.97;;;8.58;20.78
55466;BME280;41329;41.594;23.810;2023-02-07T15:24:35;96318.41;;;7.77;21.33
55466;BME280;41329;41.594;23.810;2023-02-07T15:27:04;96325.88;;;6.97;22.26
55466;BME280;41329;41.594;23.810;2023-02-07T15:29:35;96323.91;;;6.37;22.87